sensor_id;sensor_type;location;lat;lon;timestamp;temperature;humidity
72602;DHT22;60644;55.858;37.390;2023-02-02T00:01:52;1.32;69.97
72602;DHT22;60644;55.858;37.390;2023-02-02T00:04:26;1.34;70.09
72602;DHT22;60644;55.858;37.390;2023-02-02T00:06:54;1.34;69.84
72602;DHT22;60644;55.858;37.390;2023-02-02T00:09:24;1.37;69.90
72602;DHT22;60644;55.858;37.390;2023-02-02T00:11:50;1.41;69.92
72602;DHT22;60644;55.858;37.390;2023-02-02T00:14:17;1.45;70.05
72602;DHT22;60644;55.858;37.390;2023-02-02T00:16:46;1.50;70.15
72602;DHT22;60644;55.858;37.390;2023-02-02T00:19:18;1.56;70.08
72602;DHT22;60644;55.858;37.390;2023-02-02T00:21:45;1.55;70.16
72602;DHT22;60644;55.858;37.390;2023-02-02T00:24:13;1.62;70.03
72602;DHT22;60644;55.858;37.390;2023-02-02T00:26:43;1.54;69.47
72602;DHT22;60644;55.858;37.390;2023-02-02T00:29:18;1.46;69.26
72602;DHT22;60644;55.858;37.390;2023-02-02T00:31:46;1.25;67.30
72602;DHT22;60644;55.858;37.390;2023-02-02T00:34:14;1.13;67.59
72602;DHT22;60644;55.858;37.390;2023-02-02T00:36:41;1.13;68.51
72602;DHT22;60644;55.858;37.390;2023-02-02T00:39:07;1.09;67.66
72602;DHT22;60644;55.858;37.390;2023-02-02T00:41:34;1.12;68.38
72602;DHT22;60644;55.858;37.390;2023-02-02T00:43:59;1.12;67.54
72602;DHT22;60644;55.858;37.390;2023-02-02T00:46:44;1.09;67.75
72602;DHT22;60644;55.858;37.390;2023-02-02T00:49:09;1.10;67.90
72602;DHT22;60644;55.858;37.390;2023-02-02T00:51:36;1.07;67.91
72602;DHT22;60644;55.858;37.390;2023-02-02T00:54:03;1.12;68.36
72602;DHT22;60644;55.858;37.390;2023-02-02T00:56:29;1.08;67.57
72602;DHT22;60644;55.858;37.390;2023-02-02T00:58:55;1.03;67.97
72602;DHT22;60644;55.858;37.390;2023-02-02T01:01:21;1.04;68.47
72602;DHT22;60644;55.858;37.390;2023-02-02T01:03:48;1.03;68.53
72602;DHT22;60644;55.858;37.390;2023-02-02T01:06:15;1.09;68.80
72602;DHT22;60644;55.858;37.390;2023-02-02T01:08:41;1.06;68.13
72602;DHT22;60644;55.858;37.390;2023-02-02T01:11:08;1.10;68.23
72602;DHT22;60644;55.858;37.390;2023-02-02T01:13:34;1.13;68.34
72602;DHT22;60644;55.858;37.390;2023-02-02T01:16:01;1.14;68.09
72602;DHT22;60644;55.858;37.390;2023-02-02T01:18:28;1.18;68.27
72602;DHT22;60644;55.858;37.390;2023-02-02T01:20:59;1.11;67.05
72602;DHT22;60644;55.858;37.390;2023-02-02T01:23:25;1.07;67.15
72602;DHT22;60644;55.858;37.390;2023-02-02T01:25:54;1.05;67.78
72602;DHT22;60644;55.858;37.390;2023-02-02T01:28:21;1.06;68.07
72602;DHT22;60644;55.858;37.390;2023-02-02T01:30:46;1.10;68.17
72602;DHT22;60644;55.858;37.390;2023-02-02T01:33:15;1.08;68.21
72602;DHT22;60644;55.858;37.390;2023-02-02T01:38:11;1.01;67.75
72602;DHT22;60644;55.858;37.390;2023-02-02T01:40:44;0.99;68.03
72602;DHT22;60644;55.858;37.390;2023-02-02T01:43:23;1.06;68.15
72602;DHT22;60644;55.858;37.390;2023-02-02T01:45:51;1.07;67.78
72602;DHT22;60644;55.858;37.390;2023-02-02T01:48:23;1.07;67.87
72602;DHT22;60644;55.858;37.390;2023-02-02T01:50:56;1.10;67.83
72602;DHT22;60644;55.858;37.390;2023-02-02T01:53:23;1.17;67.82
72602;DHT22;60644;55.858;37.390;2023-02-02T01:55:51;1.18;67.58
72602;DHT22;60644;55.858;37.390;2023-02-02T01:58:21;1.16;67.34
72602;DHT22;60644;55.858;37.390;2023-02-02T02:00:49;1.16;67.43
72602;DHT22;60644;55.858;37.390;2023-02-02T02:03:18;1.16;67.50
72602;DHT22;60644;55.858;37.390;2023-02-02T02:05:58;1.20;67.39
72602;DHT22;60644;55.858;37.390;2023-02-02T02:08:27;1.09;66.20
72602;DHT22;60644;55.858;37.390;2023-02-02T02:10:54;1.08;66.48
72602;DHT22;60644;55.858;37.390;2023-02-02T02:13:22;1.07;66.44
72602;DHT22;60644;55.858;37.390;2023-02-02T02:33:21;1.09;66.01
72602;DHT22;60644;55.858;37.390;2023-02-02T02:38:46;1.09;66.59
72602;DHT22;60644;55.858;37.390;2023-02-02T02:41:20;1.11;66.95
72602;DHT22;60644;55.858;37.390;2023-02-02T02:44:01;1.07;65.53
72602;DHT22;60644;55.858;37.390;2023-02-02T02:46:29;1.10;66.37
72602;DHT22;60644;55.858;37.390;2023-02-02T02:48:57;1.11;66.43
72602;DHT22;60644;55.858;37.390;2023-02-02T02:54:17;1.07;66.27
72602;DHT22;60644;55.858;37.390;2023-02-02T03:05:14;0.98;66.43
72602;DHT22;60644;55.858;37.390;2023-02-02T03:07:47;0.98;66.16
72602;DHT22;60644;55.858;37.390;2023-02-02T03:10:18;0.96;66.07
72602;DHT22;60644;55.858;37.390;2023-02-02T03:12:46;0.97;66.05
72602;DHT22;60644;55.858;37.390;2023-02-02T03:15:13;0.94;64.72
72602;DHT22;60644;55.858;37.390;2023-02-02T03:17:40;0.95;65.95
72602;DHT22;60644;55.858;37.390;2023-02-02T03:20:08;0.86;65.34
72602;DHT22;60644;55.858;37.390;2023-02-02T03:22:34;0.82;65.65
72602;DHT22;60644;55.858;37.390;2023-02-02T03:25:00;0.83;65.96
72602;DHT22;60644;55.858;37.390;2023-02-02T03:27:26;0.80;65.09
72602;DHT22;60644;55.858;37.390;2023-02-02T03:29:53;0.80;65.04
72602;DHT22;60644;55.858;37.390;2023-02-02T03:32:19;0.83;65.87
72602;DHT22;60644;55.858;37.390;2023-02-02T03:34:45;0.90;66.38
72602;DHT22;60644;55.858;37.390;2023-02-02T03:37:11;0.97;66.64
72602;DHT22;60644;55.858;37.390;2023-02-02T03:39:37;1.02;66.22
72602;DHT22;60644;55.858;37.390;2023-02-02T03:42:03;1.02;65.80
72602;DHT22;60644;55.858;37.390;2023-02-02T03:44:29;1.04;66.27
72602;DHT22;60644;55.858;37.390;2023-02-02T03:46:55;1.05;66.20
72602;DHT22;60644;55.858;37.390;2023-02-02T03:49:21;1.09;66.50
72602;DHT22;60644;55.858;37.390;2023-02-02T03:51:47;1.12;66.42
72602;DHT22;60644;55.858;37.390;2023-02-02T03:54:13;1.13;66.20
72602;DHT22;60644;55.858;37.390;2023-02-02T03:56:39;1.09;65.51
72602;DHT22;60644;55.858;37.390;2023-02-02T03:59:05;1.07;65.46
72602;DHT22;60644;55.858;37.390;2023-02-02T04:01:31;1.07;65.72
72602;DHT22;60644;55.858;37.390;2023-02-02T04:03:58;1.07;65.90
72602;DHT22;60644;55.858;37.390;2023-02-02T04:06:24;1.06;65.85
72602;DHT22;60644;55.858;37.390;2023-02-02T04:08:51;1.06;66.21
72602;DHT22;60644;55.858;37.390;2023-02-02T04:11:18;1.08;66.24
72602;DHT22;60644;55.858;37.390;2023-02-02T04:13:44;1.12;65.82
72602;DHT22;60644;55.858;37.390;2023-02-02T04:16:11;1.08;65.00
72602;DHT22;60644;55.858;37.390;2023-02-02T04:18:37;1.07;65.77
72602;DHT22;60644;55.858;37.390;2023-02-02T04:21:03;1.10;66.26
72602;DHT22;60644;55.858;37.390;2023-02-02T04:23:30;1.12;65.72
72602;DHT22;60644;55.858;37.390;2023-02-02T04:25:56;1.17;65.45
72602;DHT22;60644;55.858;37.390;2023-02-02T04:28:24;1.19;65.39
72602;DHT22;60644;55.858;37.390;2023-02-02T04:30:51;1.21;65.94
72602;DHT22;60644;55.858;37.390;2023-02-02T04:33:18;1.25;66.24
72602;DHT22;60644;55.858;37.390;2023-02-02T04:35:45;1.21;65.33
72602;DHT22;60644;55.858;37.390;2023-02-02T04:38:11;1.18;65.59
72602;DHT22;60644;55.858;37.390;2023-02-02T04:40:40;1.18;65.89
72602;DHT22;60644;55.858;37.390;2023-02-02T04:43:06;1.21;65.76
72602;DHT22;60644;55.858;37.390;2023-02-02T04:45:32;1.20;64.07
72602;DHT22;60644;55.858;37.390;2023-02-02T04:47:58;1.16;65.10
72602;DHT22;60644;55.858;37.390;2023-02-02T04:50:24;1.14;65.65
72602;DHT22;60644;55.858;37.390;2023-02-02T04:52:50;1.22;65.85
72602;DHT22;60644;55.858;37.390;2023-02-02T04:55:16;1.24;65.92
72602;DHT22;60644;55.858;37.390;2023-02-02T04:57:42;1.18;64.97
72602;DHT22;60644;55.858;37.390;2023-02-02T05:00:10;1.16;65.65
72602;DHT22;60644;55.858;37.390;2023-02-02T05:02:40;1.13;64.52
72602;DHT22;60644;55.858;37.390;2023-02-02T05:05:10;1.12;65.08
72602;DHT22;60644;55.858;37.390;2023-02-02T05:07:36;1.16;65.40
72602;DHT22;60644;55.858;37.390;2023-02-02T05:10:03;1.17;65.89
72602;DHT22;60644;55.858;37.390;2023-02-02T05:12:29;1.14;65.69
72602;DHT22;60644;55.858;37.390;2023-02-02T05:14:55;1.16;66.04
72602;DHT22;60644;55.858;37.390;2023-02-02T05:17:21;1.16;65.55
72602;DHT22;60644;55.858;37.390;2023-02-02T05:19:48;1.21;65.83
72602;DHT22;60644;55.858;37.390;2023-02-02T05:22:14;1.21;65.53
72602;DHT22;60644;55.858;37.390;2023-02-02T05:24:40;1.16;65.42
72602;DHT22;60644;55.858;37.390;2023-02-02T05:27:06;1.18;65.89
72602;DHT22;60644;55.858;37.390;2023-02-02T05:29:32;1.20;65.95
72602;DHT22;60644;55.858;37.390;2023-02-02T05:31:58;1.29;65.88
72602;DHT22;60644;55.858;37.390;2023-02-02T05:34:24;1.32;65.53
72602;DHT22;60644;55.858;37.390;2023-02-02T05:36:51;1.27;65.38
72602;DHT22;60644;55.858;37.390;2023-02-02T05:39:17;1.31;65.72
72602;DHT22;60644;55.858;37.390;2023-02-02T05:41:43;1.32;64.24
72602;DHT22;60644;55.858;37.390;2023-02-02T05:44:13;1.31;65.38
72602;DHT22;60644;55.858;37.390;2023-02-02T05:46:39;1.32;65.12
72602;DHT22;60644;55.858;37.390;2023-02-02T05:49:07;1.34;65.34
72602;DHT22;60644;55.858;37.390;2023-02-02T05:51:49;1.40;65.57
72602;DHT22;60644;55.858;37.390;2023-02-02T05:54:16;1.43;65.60
72602;DHT22;60644;55.858;37.390;2023-02-02T05:56:49;1.48;65.44
72602;DHT22;60644;55.858;37.390;2023-02-02T05:59:17;1.46;65.06
72602;DHT22;60644;55.858;37.390;2023-02-02T06:01:46;1.43;64.74
72602;DHT22;60644;55.858;37.390;2023-02-02T06:04:13;1.40;65.59
72602;DHT22;60644;55.858;37.390;2023-02-02T06:06:39;1.38;65.32
72602;DHT22;60644;55.858;37.390;2023-02-02T06:09:06;1.40;65.82
72602;DHT22;60644;55.858;37.390;2023-02-02T06:11:32;1.36;65.74
72602;DHT22;60644;55.858;37.390;2023-02-02T06:13:58;1.31;65.72
72602;DHT22;60644;55.858;37.390;2023-02-02T06:16:24;1.29;65.79
72602;DHT22;60644;55.858;37.390;2023-02-02T06:18:50;1.25;65.98
72602;DHT22;60644;55.858;37.390;2023-02-02T06:21:17;1.25;65.01
72602;DHT22;60644;55.858;37.390;2023-02-02T06:23:44;1.26;65.93
72602;DHT22;60644;55.858;37.390;2023-02-02T06:26:12;1.29;66.29
72602;DHT22;60644;55.858;37.390;2023-02-02T06:28:38;1.27;66.02
72602;DHT22;60644;55.858;37.390;2023-02-02T06:31:05;1.26;65.98
72602;DHT22;60644;55.858;37.390;2023-02-02T06:33:31;1.29;66.27
72602;DHT22;60644;55.858;37.390;2023-02-02T06:35:59;1.26;65.78
72602;DHT22;60644;55.858;37.390;2023-02-02T06:38:25;1.25;65.78
72602;DHT22;60644;55.858;37.390;2023-02-02T06:40:52;1.27;65.98
72602;DHT22;60644;55.858;37.390;2023-02-02T06:43:18;1.31;66.14
72602;DHT22;60644;55.858;37.390;2023-02-02T06:45:44;1.35;66.18
72602;DHT22;60644;55.858;37.390;2023-02-02T06:48:10;1.40;66.31
72602;DHT22;60644;55.858;37.390;2023-02-02T06:50:36;1.45;66.43
72602;DHT22;60644;55.858;37.390;2023-02-02T06:53:03;1.47;66.23
72602;DHT22;60644;55.858;37.390;2023-02-02T06:55:29;1.45;65.79
72602;DHT22;60644;55.858;37.390;2023-02-02T06:57:59;1.47;66.19
72602;DHT22;60644;55.858;37.390;2023-02-02T07:00:27;1.52;66.27
72602;DHT22;60644;55.858;37.390;2023-02-02T07:02:54;1.52;66.11
72602;DHT22;60644;55.858;37.390;2023-02-02T07:05:20;1.49;65.89
72602;DHT22;60644;55.858;37.390;2023-02-02T07:07:49;1.54;66.16
72602;DHT22;60644;55.858;37.390;2023-02-02T07:10:16;1.57;66.11
72602;DHT22;60644;55.858;37.390;2023-02-02T07:12:43;1.64;66.14
72602;DHT22;60644;55.858;37.390;2023-02-02T07:15:10;1.54;63.63
72602;DHT22;60644;55.858;37.390;2023-02-02T07:17:36;1.49;65.09
72602;DHT22;60644;55.858;37.390;2023-02-02T07:20:02;1.45;65.45
72602;DHT22;60644;55.858;37.390;2023-02-02T07:22:29;1.43;65.69
72602;DHT22;60644;55.858;37.390;2023-02-02T07:24:55;1.43;65.81
72602;DHT22;60644;55.858;37.390;2023-02-02T07:27:21;1.42;64.79
72602;DHT22;60644;55.858;37.390;2023-02-02T07:29:46;1.40;65.34
72602;DHT22;60644;55.858;37.390;2023-02-02T07:32:12;1.42;65.72
72602;DHT22;60644;55.858;37.390;2023-02-02T07:34:38;1.40;65.27
72602;DHT22;60644;55.858;37.390;2023-02-02T07:37:04;1.46;65.66
72602;DHT22;60644;55.858;37.390;2023-02-02T07:39:30;1.49;65.66
72602;DHT22;60644;55.858;37.390;2023-02-02T07:41:56;1.53;65.27
72602;DHT22;60644;55.858;37.390;2023-02-02T07:44:29;1.48;65.31
72602;DHT22;60644;55.858;37.390;2023-02-02T07:46:55;1.45;64.29
72602;DHT22;60644;55.858;37.390;2023-02-02T07:49:21;1.43;65.17
72602;DHT22;60644;55.858;37.390;2023-02-02T07:51:47;1.42;64.72
72602;DHT22;60644;55.858;37.390;2023-02-02T07:54:14;1.43;65.14
72602;DHT22;60644;55.858;37.390;2023-02-02T07:56:40;1.39;65.01
72602;DHT22;60644;55.858;37.390;2023-02-02T07:59:05;1.37;64.79
72602;DHT22;60644;55.858;37.390;2023-02-02T08:01:37;1.32;64.25
72602;DHT22;60644;55.858;37.390;2023-02-02T08:04:16;1.37;65.59
72602;DHT22;60644;55.858;37.390;2023-02-02T08:06:43;1.45;65.33
72602;DHT22;60644;55.858;37.390;2023-02-02T08:09:09;1.51;64.74
72602;DHT22;60644;55.858;37.390;2023-02-02T08:11:36;1.47;63.98
72602;DHT22;60644;55.858;37.390;2023-02-02T08:14:03;1.45;64.58
72602;DHT22;60644;55.858;37.390;2023-02-02T08:16:31;1.43;64.70
72602;DHT22;60644;55.858;37.390;2023-02-02T08:18:58;1.56;65.03
72602;DHT22;60644;55.858;37.390;2023-02-02T08:21:24;1.68;65.01
72602;DHT22;60644;55.858;37.390;2023-02-02T08:23:51;1.81;65.17
72602;DHT22;60644;55.858;37.390;2023-02-02T08:26:20;1.83;63.74
72602;DHT22;60644;55.858;37.390;2023-02-02T08:28:50;1.78;63.31
72602;DHT22;60644;55.858;37.390;2023-02-02T08:31:19;1.72;63.66
72602;DHT22;60644;55.858;37.390;2023-02-02T08:33:46;1.76;64.09
72602;DHT22;60644;55.858;37.390;2023-02-02T08:36:14;1.77;64.91
72602;DHT22;60644;55.858;37.390;2023-02-02T08:38:40;1.82;64.11
72602;DHT22;60644;55.858;37.390;2023-02-02T08:41:08;1.88;64.45
72602;DHT22;60644;55.858;37.390;2023-02-02T08:43:35;1.93;64.58
72602;DHT22;60644;55.858;37.390;2023-02-02T08:46:01;1.98;64.40
72602;DHT22;60644;55.858;37.390;2023-02-02T08:48:27;2.02;64.08
72602;DHT22;60644;55.858;37.390;2023-02-02T08:50:55;2.07;63.63
72602;DHT22;60644;55.858;37.390;2023-02-02T08:53:22;2.08;63.15
72602;DHT22;60644;55.858;37.390;2023-02-02T08:55:48;2.09;64.16
72602;DHT22;60644;55.858;37.390;2023-02-02T08:58:22;1.98;63.31
72602;DHT22;60644;55.858;37.390;2023-02-02T09:00:47;1.92;64.67
72602;DHT22;60644;55.858;37.390;2023-02-02T09:03:15;1.87;63.99
72602;DHT22;60644;55.858;37.390;2023-02-02T09:05:41;1.85;63.63
72602;DHT22;60644;55.858;37.390;2023-02-02T09:08:07;1.85;62.34
72602;DHT22;60644;55.858;37.390;2023-02-02T09:10:36;1.86;63.50
72602;DHT22;60644;55.858;37.390;2023-02-02T09:13:02;1.88;64.01
72602;DHT22;60644;55.858;37.390;2023-02-02T09:15:29;1.93;63.57
72602;DHT22;60644;55.858;37.390;2023-02-02T09:17:55;1.95;63.63
72602;DHT22;60644;55.858;37.390;2023-02-02T09:20:21;1.95;62.56
72602;DHT22;60644;55.858;37.390;2023-02-02T09:22:47;1.88;62.66
72602;DHT22;60644;55.858;37.390;2023-02-02T09:25:14;1.80;61.81
72602;DHT22;60644;55.858;37.390;2023-02-02T09:27:39;1.75;62.48
72602;DHT22;60644;55.858;37.390;2023-02-02T09:30:07;1.70;62.86
72602;DHT22;60644;55.858;37.390;2023-02-02T09:32:33;1.67;63.12
72602;DHT22;60644;55.858;37.390;2023-02-02T09:34:59;1.67;63.79
72602;DHT22;60644;55.858;37.390;2023-02-02T09:37:26;1.71;63.92
72602;DHT22;60644;55.858;37.390;2023-02-02T09:39:52;1.77;63.69
72602;DHT22;60644;55.858;37.390;2023-02-02T09:42:25;1.76;62.98
72602;DHT22;60644;55.858;37.390;2023-02-02T09:45:01;1.80;62.79
72602;DHT22;60644;55.858;37.390;2023-02-02T09:52:50;1.91;62.80
72602;DHT22;60644;55.858;37.390;2023-02-02T09:55:40;1.93;61.41
72602;DHT22;60644;55.858;37.390;2023-02-02T10:00:53;2.01;63.66
72602;DHT22;60644;55.858;37.390;2023-02-02T10:03:44;2.02;62.12
72602;DHT22;60644;55.858;37.390;2023-02-02T10:08:47;2.03;62.45
72602;DHT22;60644;55.858;37.390;2023-02-02T10:13:51;2.06;62.74
72602;DHT22;60644;55.858;37.390;2023-02-02T10:16:21;2.09;62.79
72602;DHT22;60644;55.858;37.390;2023-02-02T10:19:08;2.09;61.31
72602;DHT22;60644;55.858;37.390;2023-02-02T10:22:06;2.06;60.28
72602;DHT22;60644;55.858;37.390;2023-02-02T10:24:35;2.12;62.50
72602;DHT22;60644;55.858;37.390;2023-02-02T10:27:10;2.20;62.47
72602;DHT22;60644;55.858;37.390;2023-02-02T10:29:41;2.23;61.01
72602;DHT22;60644;55.858;37.390;2023-02-02T10:32:24;2.24;61.50
72602;DHT22;60644;55.858;37.390;2023-02-02T10:37:44;2.35;61.54
72602;DHT22;60644;55.858;37.390;2023-02-02T10:43:34;2.30;60.87
72602;DHT22;60644;55.858;37.390;2023-02-02T10:46:32;2.27;60.51
72602;DHT22;60644;55.858;37.390;2023-02-02T10:52:17;2.30;61.96
72602;DHT22;60644;55.858;37.390;2023-02-02T10:57:15;2.29;61.29
72602;DHT22;60644;55.858;37.390;2023-02-02T11:02:35;2.37;61.82
72602;DHT22;60644;55.858;37.390;2023-02-02T11:05:01;2.50;61.86
72602;DHT22;60644;55.858;37.390;2023-02-02T11:07:45;2.59;61.52
72602;DHT22;60644;55.858;37.390;2023-02-02T11:10:11;2.58;60.06
72602;DHT22;60644;55.858;37.390;2023-02-02T11:12:44;2.59;61.25
72602;DHT22;60644;55.858;37.390;2023-02-02T11:15:26;2.64;60.52
72602;DHT22;60644;55.858;37.390;2023-02-02T11:17:53;2.64;61.62
72602;DHT22;60644;55.858;37.390;2023-02-02T11:20:30;2.72;60.78
72602;DHT22;60644;55.858;37.390;2023-02-02T11:23:04;2.87;60.88
72602;DHT22;60644;55.858;37.390;2023-02-02T11:25:36;2.89;60.01
72602;DHT22;60644;55.858;37.390;2023-02-02T11:28:11;2.80;59.67
72602;DHT22;60644;55.858;37.390;2023-02-02T11:30:47;2.80;60.38
72602;DHT22;60644;55.858;37.390;2023-02-02T11:33:31;2.76;59.34
72602;DHT22;60644;55.858;37.390;2023-02-02T11:36:17;2.73;60.09
72602;DHT22;60644;55.858;37.390;2023-02-02T11:38:43;2.73;60.58
72602;DHT22;60644;55.858;37.390;2023-02-02T11:41:09;2.78;60.32
72602;DHT22;60644;55.858;37.390;2023-02-02T11:43:39;2.79;60.18
72602;DHT22;60644;55.858;37.390;2023-02-02T11:46:17;2.81;60.24
72602;DHT22;60644;55.858;37.390;2023-02-02T11:48:59;2.83;61.05
72602;DHT22;60644;55.858;37.390;2023-02-02T11:51:27;2.82;59.35
72602;DHT22;60644;55.858;37.390;2023-02-02T11:54:05;2.76;59.07
72602;DHT22;60644;55.858;37.390;2023-02-02T11:56:34;2.72;60.49
72602;DHT22;60644;55.858;37.390;2023-02-02T11:59:01;2.71;60.82
72602;DHT22;60644;55.858;37.390;2023-02-02T12:01:34;2.72;60.89
72602;DHT22;60644;55.858;37.390;2023-02-02T12:04:24;2.68;60.47
72602;DHT22;60644;55.858;37.390;2023-02-02T12:06:50;2.71;61.25
72602;DHT22;60644;55.858;37.390;2023-02-02T12:09:20;2.75;61.31
72602;DHT22;60644;55.858;37.390;2023-02-02T12:17:42;2.66;61.11
72602;DHT22;60644;55.858;37.390;2023-02-02T12:34:10;2.60;60.99
72602;DHT22;60644;55.858;37.390;2023-02-02T12:39:31;2.45;60.18
72602;DHT22;60644;55.858;37.390;2023-02-02T12:47:37;2.52;59.90
72602;DHT22;60644;55.858;37.390;2023-02-02T12:53:00;2.36;61.71
72602;DHT22;60644;55.858;37.390;2023-02-02T12:55:50;2.32;61.12
72602;DHT22;60644;55.858;37.390;2023-02-02T12:58:45;2.34;61.61
72602;DHT22;60644;55.858;37.390;2023-02-02T13:01:50;2.36;61.44
72602;DHT22;60644;55.858;37.390;2023-02-02T13:04:47;2.42;61.96
72602;DHT22;60644;55.858;37.390;2023-02-02T13:07:27;2.42;62.44
72602;DHT22;60644;55.858;37.390;2023-02-02T13:10:04;2.41;61.61
72602;DHT22;60644;55.858;37.390;2023-02-02T13:12:38;2.40;62.30
72602;DHT22;60644;55.858;37.390;2023-02-02T13:15:08;2.35;61.21
72602;DHT22;60644;55.858;37.390;2023-02-02T13:17:55;2.24;60.73
72602;DHT22;60644;55.858;37.390;2023-02-02T13:23:04;2.25;61.28
72602;DHT22;60644;55.858;37.390;2023-02-02T13:25:43;2.23;61.83
72602;DHT22;60644;55.858;37.390;2023-02-02T13:28:21;2.17;61.44
72602;DHT22;60644;55.858;37.390;2023-02-02T13:30:51;2.12;61.63
72602;DHT22;60644;55.858;37.390;2023-02-02T13:33:27;2.10;61.28
72602;DHT22;60644;55.858;37.390;2023-02-02T13:36:02;2.12;61.63
72602;DHT22;60644;55.858;37.390;2023-02-02T13:38:30;2.06;61.25
72602;DHT22;60644;55.858;37.390;2023-02-02T13:41:01;2.06;61.73
72602;DHT22;60644;55.858;37.390;2023-02-02T13:49:18;2.00;62.54
72602;DHT22;60644;55.858;37.390;2023-02-02T13:57:26;1.97;62.69
72602;DHT22;60644;55.858;37.390;2023-02-02T14:00:16;2.01;63.37
72602;DHT22;60644;55.858;37.390;2023-02-02T14:05:28;2.02;63.19
72602;DHT22;60644;55.858;37.390;2023-02-02T14:16:01;2.06;63.43
72602;DHT22;60644;55.858;37.390;2023-02-02T14:18:50;1.99;62.52
72602;DHT22;60644;55.858;37.390;2023-02-02T14:27:03;1.95;63.18
72602;DHT22;60644;55.858;37.390;2023-02-02T14:34:54;1.97;62.70
72602;DHT22;60644;55.858;37.390;2023-02-02T14:45:29;2.05;63.60
72602;DHT22;60644;55.858;37.390;2023-02-02T14:48:00;1.99;63.14
72602;DHT22;60644;55.858;37.390;2023-02-02T14:56:02;1.90;64.09
72602;DHT22;60644;55.858;37.390;2023-02-02T15:06:42;1.96;63.66
72602;DHT22;60644;55.858;37.390;2023-02-02T15:14:29;1.90;63.87
72602;DHT22;60644;55.858;37.390;2023-02-02T15:17:09;1.88;63.74
72602;DHT22;60644;55.858;37.390;2023-02-02T15:19:40;1.86;63.92
72602;DHT22;60644;55.858;37.390;2023-02-02T15:34:56;1.84;64.51
72602;DHT22;60644;55.858;37.390;2023-02-02T15:37:04;1.85;64.39
72602;DHT22;60644;55.858;37.390;2023-02-02T15:42:01;1.86;64.48
72602;DHT22;60644;55.858;37.390;2023-02-02T15:44:47;1.90;64.72
72602;DHT22;60644;55.858;37.390;2023-02-02T15:47:27;1.93;64.75
72602;DHT22;60644;55.858;37.390;2023-02-02T15:49:54;1.86;64.05
72602;DHT22;60644;55.858;37.390;2023-02-02T15:52:27;1.92;64.59
72602;DHT22;60644;55.858;37.390;2023-02-02T15:54:58;1.94;64.55
72602;DHT22;60644;55.858;37.390;2023-02-02T15:57:26;1.98;64.59
72602;DHT22;60644;55.858;37.390;2023-02-02T15:59:52;1.97;64.15
72602;DHT22;60644;55.858;37.390;2023-02-02T16:02:40;1.97;64.71
72602;DHT22;60644;55.858;37.390;2023-02-02T16:07:54;1.96;64.61
72602;DHT22;60644;55.858;37.390;2023-02-02T16:10:22;1.90;64.80
72602;DHT22;60644;55.858;37.390;2023-02-02T16:12:48;1.86;64.74
72602;DHT22;60644;55.858;37.390;2023-02-02T16:15:20;1.86;64.88
72602;DHT22;60644;55.858;37.390;2023-02-02T16:18:00;1.90;65.06
72602;DHT22;60644;55.858;37.390;2023-02-02T16:20:28;1.94;65.01
72602;DHT22;60644;55.858;37.390;2023-02-02T16:22:56;1.91;65.15
72602;DHT22;60644;55.858;37.390;2023-02-02T16:25:30;1.90;64.86
72602;DHT22;60644;55.858;37.390;2023-02-02T16:27:57;1.79;64.97
72602;DHT22;60644;55.858;37.390;2023-02-02T16:30:28;1.80;65.21
72602;DHT22;60644;55.858;37.390;2023-02-02T16:32:54;1.76;65.04
72602;DHT22;60644;55.858;37.390;2023-02-02T16:35:33;1.76;65.26
72602;DHT22;60644;55.858;37.390;2023-02-02T16:38:13;1.80;65.27
72602;DHT22;60644;55.858;37.390;2023-02-02T16:40:39;1.80;65.30
72602;DHT22;60644;55.858;37.390;2023-02-02T16:43:12;1.83;65.35
72602;DHT22;60644;55.858;37.390;2023-02-02T16:45:50;1.82;64.84
72602;DHT22;60644;55.858;37.390;2023-02-02T16:48:33;1.81;65.29
72602;DHT22;60644;55.858;37.390;2023-02-02T16:53:35;1.79;65.38
72602;DHT22;60644;55.858;37.390;2023-02-02T16:56:03;1.77;65.28
72602;DHT22;60644;55.858;37.390;2023-02-02T16:58:30;1.78;65.47
72602;DHT22;60644;55.858;37.390;2023-02-02T17:01:07;1.81;65.37
72602;DHT22;60644;55.858;37.390;2023-02-02T17:03:35;1.85;65.41
72602;DHT22;60644;55.858;37.390;2023-02-02T17:06:03;1.84;65.52
72602;DHT22;60644;55.858;37.390;2023-02-02T17:08:37;1.84;65.69
72602;DHT22;60644;55.858;37.390;2023-02-02T17:11:22;1.83;65.63
72602;DHT22;60644;55.858;37.390;2023-02-02T17:13:49;1.84;65.55
72602;DHT22;60644;55.858;37.390;2023-02-02T17:16:20;1.81;65.46
72602;DHT22;60644;55.858;37.390;2023-02-02T17:18:47;1.78;65.69
72602;DHT22;60644;55.858;37.390;2023-02-02T17:21:19;1.77;65.77
72602;DHT22;60644;55.858;37.390;2023-02-02T17:23:46;1.77;65.82
72602;DHT22;60644;55.858;37.390;2023-02-02T17:26:16;1.78;65.97
72602;DHT22;60644;55.858;37.390;2023-02-02T17:28:42;1.77;65.91
72602;DHT22;60644;55.858;37.390;2023-02-02T17:31:10;1.73;65.77
72602;DHT22;60644;55.858;37.390;2023-02-02T17:33:38;1.77;66.07
72602;DHT22;60644;55.858;37.390;2023-02-02T17:36:04;1.78;66.04
72602;DHT22;60644;55.858;37.390;2023-02-02T17:38:30;1.76;66.08
72602;DHT22;60644;55.858;37.390;2023-02-02T17:41:01;1.77;66.14
72602;DHT22;60644;55.858;37.390;2023-02-02T17:43:29;1.75;66.11
72602;DHT22;60644;55.858;37.390;2023-02-02T17:45:56;1.73;66.11
72602;DHT22;60644;55.858;37.390;2023-02-02T17:48:22;1.76;66.21
72602;DHT22;60644;55.858;37.390;2023-02-02T17:50:48;1.77;66.17
72602;DHT22;60644;55.858;37.390;2023-02-02T17:53:17;1.67;65.91
72602;DHT22;60644;55.858;37.390;2023-02-02T17:55:46;1.71;66.21
72602;DHT22;60644;55.858;37.390;2023-02-02T17:58:13;1.73;66.22
72602;DHT22;60644;55.858;37.390;2023-02-02T18:00:48;1.71;66.09
72602;DHT22;60644;55.858;37.390;2023-02-02T18:03:35;1.72;66.17
72602;DHT22;60644;55.858;37.390;2023-02-02T18:06:02;1.76;66.28
72602;DHT22;60644;55.858;37.390;2023-02-02T18:08:29;1.75;66.10
72602;DHT22;60644;55.858;37.390;2023-02-02T18:10:56;1.73;66.21
72602;DHT22;60644;55.858;37.390;2023-02-02T18:13:23;1.66;65.76
72602;DHT22;60644;55.858;37.390;2023-02-02T18:15:50;1.68;66.12
72602;DHT22;60644;55.858;37.390;2023-02-02T18:18:24;1.73;66.24
72602;DHT22;60644;55.858;37.390;2023-02-02T18:20:51;1.71;66.25
72602;DHT22;60644;55.858;37.390;2023-02-02T18:23:18;1.73;66.28
72602;DHT22;60644;55.858;37.390;2023-02-02T18:25:44;1.82;66.31
72602;DHT22;60644;55.858;37.390;2023-02-02T18:28:10;1.85;66.31
72602;DHT22;60644;55.858;37.390;2023-02-02T18:30:38;1.91;66.27
72602;DHT22;60644;55.858;37.390;2023-02-02T18:33:07;1.96;66.10
72602;DHT22;60644;55.858;37.390;2023-02-02T18:35:34;2.01;66.02
72602;DHT22;60644;55.858;37.390;2023-02-02T18:38:00;2.03;65.81
72602;DHT22;60644;55.858;37.390;2023-02-02T18:40:26;2.03;65.47
72602;DHT22;60644;55.858;37.390;2023-02-02T18:42:52;2.01;65.72